sensor_id;sensor_type;location;lat;lon;timestamp;P1;durP1;ratioP1;P2;durP2;ratioP2
28353;SDS011;15603;50.878;8.036;2022-11-06T00:02:10;11.48;;;3.55;;
28353;SDS011;15603;50.878;8.036;2022-11-06T00:04:43;11.68;;;4.55;;
28353;SDS011;15603;50.878;8.036;2022-11-06T00:07:10;14.35;;;3.97;;
28353;SDS011;15603;50.878;8.036;2022-11-06T00:09:37;15.98;;;3.97;;
28353;SDS011;15603;50.878;8.036;2022-11-06T00:12:04;10.45;;;4.07;;
28353;SDS011;15603;50.878;8.036;2022-11-06T00:14:31;11.23;;;4.07;;
28353;SDS011;15603;50.878;8.036;2022-11-06T00:16:58;8.48;;;3.65;;
28353;SDS011;15603;50.878;8.036;2022-11-06T00:19:25;13.95;;;3.45;;
28353;SDS011;15603;50.878;8.036;2022-11-06T00:21:52;11.20;;;3.83;;
28353;SDS011;15603;50.878;8.036;2022-11-06T00:24:19;8.57;;;3.75;;
28353;SDS011;15603;50.878;8.036;2022-11-06T00:26:46;10.63;;;4.20;;
28353;SDS011;15603;50.878;8.036;2022-11-06T00:29:20;15.07;;;4.30;;
28353;SDS011;15603;50.878;8.036;2022-11-06T00:31:48;20.30;;;4.57;;
28353;SDS011;15603;50.878;8.036;2022-11-06T00:34:15;8.57;;;3.42;;
28353;SDS011;15603;50.878;8.036;2022-11-06T00:36:42;12.45;;;3.60;;
28353;SDS011;15603;50.878;8.036;2022-11-06T00:39:09;12.27;;;4.28;;
28353;SDS011;15603;50.878;8.036;2022-11-06T00:41:37;13.68;;;4.32;;
28353;SDS011;15603;50.878;8.036;2022-11-06T00:44:04;17.73;;;3.92;;
28353;SDS011;15603;50.878;8.036;2022-11-06T00:46:31;16.52;;;4.45;;
28353;SDS011;15603;50.878;8.036;2022-11-06T00:48:58;14.52;;;3.30;;
28353;SDS011;15603;50.878;8.036;2022-11-06T00:51:27;10.73;;;3.40;;
28353;SDS011;15603;50.878;8.036;2022-11-06T00:53:59;10.98;;;3.33;;
28353;SDS011;15603;50.878;8.036;2022-11-06T00:56:28;7.47;;;3.03;;
28353;SDS011;15603;50.878;8.036;2022-11-06T00:59:00;11.65;;;3.78;;
28353;SDS011;15603;50.878;8.036;2022-11-06T01:01:29;10.23;;;4.03;;
28353;SDS011;15603;50.878;8.036;2022-11-06T01:03:59;13.27;;;3.15;;
28353;SDS011;15603;50.878;8.036;2022-11-06T01:06:29;9.73;;;3.28;;
28353;SDS011;15603;50.878;8.036;2022-11-06T01:08:58;9.60;;;3.55;;
28353;SDS011;15603;50.878;8.036;2022-11-06T01:11:37;10.40;;;3.25;;
28353;SDS011;15603;50.878;8.036;2022-11-06T01:14:26;8.85;;;3.33;;
28353;SDS011;15603;50.878;8.036;2022-11-06T01:16:53;12.05;;;3.10;;
28353;SDS011;15603;50.878;8.036;2022-11-06T01:19:21;15.00;;;4.72;;
28353;SDS011;15603;50.878;8.036;2022-11-06T01:21:50;10.98;;;4.13;;
28353;SDS011;15603;50.878;8.036;2022-11-06T01:24:24;15.77;;;4.30;;
28353;SDS011;15603;50.878;8.036;2022-11-06T01:26:53;13.27;;;3.35;;
28353;SDS011;15603;50.878;8.036;2022-11-06T01:29:40;8.70;;;3.85;;
28353;SDS011;15603;50.878;8.036;2022-11-06T01:32:07;11.82;;;3.85;;
28353;SDS011;15603;50.878;8.036;2022-11-06T01:34:34;10.10;;;3.85;;
28353;SDS011;15603;50.878;8.036;2022-11-06T01:37:01;11.32;;;3.58;;
28353;SDS011;15603;50.878;8.036;2022-11-06T01:39:29;12.45;;;3.95;;
28353;SDS011;15603;50.878;8.036;2022-11-06T01:41:56;11.38;;;3.60;;
28353;SDS011;15603;50.878;8.036;2022-11-06T01:46:57;11.38;;;3.90;;
28353;SDS011;15603;50.878;8.036;2022-11-06T01:49:26;21.98;;;5.38;;
28353;SDS011;15603;50.878;8.036;2022-11-06T01:51:57;9.43;;;3.28;;
28353;SDS011;15603;50.878;8.036;2022-11-06T01:54:28;17.95;;;4.43;;
28353;SDS011;15603;50.878;8.036;2022-11-06T01:56:57;11.80;;;3.40;;
28353;SDS011;15603;50.878;8.036;2022-11-06T01:59:26;18.67;;;3.58;;
28353;SDS011;15603;50.878;8.036;2022-11-06T02:01:56;11.23;;;3.80;;
28353;SDS011;15603;50.878;8.036;2022-11-06T02:04:25;6.28;;;3.03;;
28353;SDS011;15603;50.878;8.036;2022-11-06T02:06:58;13.23;;;4.15;;
28353;SDS011;15603;50.878;8.036;2022-11-06T02:09:26;10.73;;;3.03;;
28353;SDS011;15603;50.878;8.036;2022-11-06T02:17:07;9.00;;;3.80;;
28353;SDS011;15603;50.878;8.036;2022-11-06T02:19:53;12.60;;;3.28;;
28353;SDS011;15603;50.878;8.036;2022-11-06T02:25:42;13.07;;;3.05;;
28353;SDS011;15603;50.878;8.036;2022-11-06T02:28:17;10.35;;;2.95;;
28353;SDS011;15603;50.878;8.036;2022-11-06T02:30:45;11.73;;;2.38;;
28353;SDS011;15603;50.878;8.036;2022-11-06T02:33:15;12.23;;;3.90;;
28353;SDS011;15603;50.878;8.036;2022-11-06T02:35:51;17.45;;;3.15;;
28353;SDS011;15603;50.878;8.036;2022-11-06T02:38:25;15.07;;;3.67;;
28353;SDS011;15603;50.878;8.036;2022-11-06T02:40:59;8.77;;;2.90;;
28353;SDS011;15603;50.878;8.036;2022-11-06T02:43:40;6.35;;;2.50;;
28353;SDS011;15603;50.878;8.036;2022-11-06T02:46:12;10.10;;;2.90;;
28353;SDS011;15603;50.878;8.036;2022-11-06T02:48:44;11.07;;;2.10;;
28353;SDS011;15603;50.878;8.036;2022-11-06T02:51:14;10.40;;;2.63;;
28353;SDS011;15603;50.878;8.036;2022-11-06T02:53:47;10.27;;;2.83;;
28353;SDS011;15603;50.878;8.036;2022-11-06T02:56:15;13.48;;;2.45;;
28353;SDS011;15603;50.878;8.036;2022-11-06T03:01:26;9.10;;;2.38;;
28353;SDS011;15603;50.878;8.036;2022-11-06T03:06:32;12.25;;;2.58;;
28353;SDS011;15603;50.878;8.036;2022-11-06T03:09:04;10.48;;;3.20;;
28353;SDS011;15603;50.878;8.036;2022-11-06T03:11:35;9.20;;;2.53;;
28353;SDS011;15603;50.878;8.036;2022-11-06T03:17:04;5.38;;;2.13;;
28353;SDS011;15603;50.878;8.036;2022-11-06T03:19:51;9.88;;;2.60;;
28353;SDS011;15603;50.878;8.036;2022-11-06T03:22:26;12.27;;;2.15;;
28353;SDS011;15603;50.878;8.036;2022-11-06T03:24:59;28.27;;;3.70;;
28353;SDS011;15603;50.878;8.036;2022-11-06T03:27:35;13.65;;;4.82;;
28353;SDS011;15603;50.878;8.036;2022-11-06T03:30:06;8.90;;;2.40;;
28353;SDS011;15603;50.878;8.036;2022-11-06T03:40:33;12.65;;;3.03;;
28353;SDS011;15603;50.878;8.036;2022-11-06T03:43:05;8.77;;;2.45;;
28353;SDS011;15603;50.878;8.036;2022-11-06T03:45:34;5.78;;;2.08;;
28353;SDS011;15603;50.878;8.036;2022-11-06T03:50:43;16.15;;;2.53;;
28353;SDS011;15603;50.878;8.036;2022-11-06T03:53:30;11.40;;;2.72;;
28353;SDS011;15603;50.878;8.036;2022-11-06T03:56:12;14.50;;;3.63;;
28353;SDS011;15603;50.878;8.036;2022-11-06T03:58:45;14.23;;;2.20;;
28353;SDS011;15603;50.878;8.036;2022-11-06T04:01:16;10.48;;;2.80;;
28353;SDS011;15603;50.878;8.036;2022-11-06T04:04:00;9.25;;;3.03;;
28353;SDS011;15603;50.878;8.036;2022-11-06T04:09:20;8.85;;;2.35;;
28353;SDS011;15603;50.878;8.036;2022-11-06T04:12:10;6.03;;;2.10;;
28353;SDS011;15603;50.878;8.036;2022-11-06T04:15:01;13.85;;;2.50;;
28353;SDS011;15603;50.878;8.036;2022-11-06T04:17:28;10.88;;;2.25;;
28353;SDS011;15603;50.878;8.036;2022-11-06T04:19:56;16.52;;;4.85;;
28353;SDS011;15603;50.878;8.036;2022-11-06T04:25:32;10.38;;;2.28;;
28353;SDS011;15603;50.878;8.036;2022-11-06T04:28:42;7.35;;;2.22;;
28353;SDS011;15603;50.878;8.036;2022-11-06T04:31:31;8.48;;;2.65;;
28353;SDS011;15603;50.878;8.036;2022-11-06T04:34:16;12.15;;;2.22;;
28353;SDS011;15603;50.878;8.036;2022-11-06T04:36:58;9.02;;;2.53;;
28353;SDS011;15603;50.878;8.036;2022-11-06T04:42:27;7.30;;;2.00;;
28353;SDS011;15603;50.878;8.036;2022-11-06T04:45:13;6.50;;;2.10;;
28353;SDS011;15603;50.878;8.036;2022-11-06T04:47:49;10.50;;;2.40;;
28353;SDS011;15603;50.878;8.036;2022-11-06T04:50:18;13.90;;;2.67;;
28353;SDS011;15603;50.878;8.036;2022-11-06T04:52:48;10.80;;;2.70;;
28353;SDS011;15603;50.878;8.036;2022-11-06T04:55:17;9.90;;;2.65;;
28353;SDS011;15603;50.878;8.036;2022-11-06T04:57:45;15.70;;;2.92;;
28353;SDS011;15603;50.878;8.036;2022-11-06T05:00:13;7.15;;;2.30;;
28353;SDS011;15603;50.878;8.036;2022-11-06T05:02:40;7.13;;;2.22;;
28353;SDS011;15603;50.878;8.036;2022-11-06T05:05:07;11.40;;;2.00;;
28353;SDS011;15603;50.878;8.036;2022-11-06T05:07:36;6.93;;;2.38;;
28353;SDS011;15603;50.878;8.036;2022-11-06T05:10:03;7.95;;;2.58;;
28353;SDS011;15603;50.878;8.036;2022-11-06T05:12:30;8.05;;;1.95;;
28353;SDS011;15603;50.878;8.036;2022-11-06T05:14:57;10.27;;;2.95;;
28353;SDS011;15603;50.878;8.036;2022-11-06T05:17:24;9.82;;;2.22;;
28353;SDS011;15603;50.878;8.036;2022-11-06T05:19:51;13.18;;;2.63;;
28353;SDS011;15603;50.878;8.036;2022-11-06T05:22:18;7.20;;;2.10;;
28353;SDS011;15603;50.878;8.036;2022-11-06T05:25:04;3.75;;;1.77;;
28353;SDS011;15603;50.878;8.036;2022-11-06T05:27:31;13.38;;;3.20;;
28353;SDS011;15603;50.878;8.036;2022-11-06T05:29:58;16.60;;;2.30;;
28353;SDS011;15603;50.878;8.036;2022-11-06T05:32:25;16.25;;;2.80;;
28353;SDS011;15603;50.878;8.036;2022-11-06T05:34:52;9.40;;;2.10;;
28353;SDS011;15603;50.878;8.036;2022-11-06T05:37:19;9.45;;;2.13;;
28353;SDS011;15603;50.878;8.036;2022-11-06T05:39:46;8.75;;;1.95;;
28353;SDS011;15603;50.878;8.036;2022-11-06T05:42:13;12.25;;;2.20;;
28353;SDS011;15603;50.878;8.036;2022-11-06T05:44:40;9.00;;;3.03;;
28353;SDS011;15603;50.878;8.036;2022-11-06T05:47:07;7.18;;;2.28;;
28353;SDS011;15603;50.878;8.036;2022-11-06T05:49:34;6.80;;;1.75;;
28353;SDS011;15603;50.878;8.036;2022-11-06T05:52:01;7.40;;;2.20;;
28353;SDS011;15603;50.878;8.036;2022-11-06T05:54:28;10.55;;;2.53;;
28353;SDS011;15603;50.878;8.036;2022-11-06T05:56:55;13.20;;;3.17;;
28353;SDS011;15603;50.878;8.036;2022-11-06T05:59:23;7.80;;;1.95;;
28353;SDS011;15603;50.878;8.036;2022-11-06T06:01:50;10.38;;;2.83;;
28353;SDS011;15603;50.878;8.036;2022-11-06T06:04:17;7.45;;;2.20;;
28353;SDS011;15603;50.878;8.036;2022-11-06T06:06:44;6.30;;;1.90;;
28353;SDS011;15603;50.878;8.036;2022-11-06T06:09:12;6.97;;;1.88;;
28353;SDS011;15603;50.878;8.036;2022-11-06T06:11:39;7.40;;;2.00;;
28353;SDS011;15603;50.878;8.036;2022-11-06T06:14:06;13.30;;;2.20;;
28353;SDS011;15603;50.878;8.036;2022-11-06T06:16:33;11.60;;;2.45;;
28353;SDS011;15603;50.878;8.036;2022-11-06T06:19:00;11.05;;;2.03;;
28353;SDS011;15603;50.878;8.036;2022-11-06T06:21:27;11.88;;;3.70;;
28353;SDS011;15603;50.878;8.036;2022-11-06T06:23:54;14.95;;;1.77;;
28353;SDS011;15603;50.878;8.036;2022-11-06T06:26:21;10.10;;;1.67;;
28353;SDS011;15603;50.878;8.036;2022-11-06T06:28:48;10.98;;;2.30;;
28353;SDS011;15603;50.878;8.036;2022-11-06T06:31:15;13.90;;;2.80;;
28353;SDS011;15603;50.878;8.036;2022-11-06T06:33:42;10.80;;;2.80;;
28353;SDS011;15603;50.878;8.036;2022-11-06T06:36:09;6.88;;;1.92;;
28353;SDS011;15603;50.878;8.036;2022-11-06T06:38:36;8.48;;;1.88;;
28353;SDS011;15603;50.878;8.036;2022-11-06T06:41:04;12.25;;;1.98;;
28353;SDS011;15603;50.878;8.036;2022-11-06T06:43:32;10.18;;;1.95;;
28353;SDS011;15603;50.878;8.036;2022-11-06T06:46:01;12.65;;;1.80;;
28353;SDS011;15603;50.878;8.036;2022-11-06T06:48:29;8.93;;;2.25;;
28353;SDS011;15603;50.878;8.036;2022-11-06T06:50:57;10.50;;;2.10;;
28353;SDS011;15603;50.878;8.036;2022-11-06T06:53:27;8.82;;;2.33;;
28353;SDS011;15603;50.878;8.036;2022-11-06T06:55:57;5.93;;;2.10;;
28353;SDS011;15603;50.878;8.036;2022-11-06T06:58:25;14.20;;;2.20;;
28353;SDS011;15603;50.878;8.036;2022-11-06T07:00:53;14.23;;;2.00;;
28353;SDS011;15603;50.878;8.036;2022-11-06T07:03:21;10.52;;;2.08;;
28353;SDS011;15603;50.878;8.036;2022-11-06T07:05:48;4.47;;;1.60;;
28353;SDS011;15603;50.878;8.036;2022-11-06T07:08:15;12.95;;;1.90;;
28353;SDS011;15603;50.878;8.036;2022-11-06T07:10:42;13.40;;;2.30;;
28353;SDS011;15603;50.878;8.036;2022-11-06T07:13:09;16.48;;;2.72;;
28353;SDS011;15603;50.878;8.036;2022-11-06T07:15:37;7.00;;;2.13;;
28353;SDS011;15603;50.878;8.036;2022-11-06T07:18:04;9.68;;;2.00;;
28353;SDS011;15603;50.878;8.036;2022-11-06T07:20:32;10.60;;;2.90;;
28353;SDS011;15603;50.878;8.036;2022-11-06T07:23:04;11.88;;;1.55;;
28353;SDS011;15603;50.878;8.036;2022-11-06T07:25:32;11.43;;;2.10;;
28353;SDS011;15603;50.878;8.036;2022-11-06T07:28:00;8.73;;;2.03;;
28353;SDS011;15603;50.878;8.036;2022-11-06T07:30:36;6.20;;;1.80;;
28353;SDS011;15603;50.878;8.036;2022-11-06T07:33:03;6.10;;;1.85;;
28353;SDS011;15603;50.878;8.036;2022-11-06T07:35:32;8.05;;;1.98;;
28353;SDS011;15603;50.878;8.036;2022-11-06T07:38:03;10.57;;;2.00;;
28353;SDS011;15603;50.878;8.036;2022-11-06T07:40:32;10.52;;;2.17;;
28353;SDS011;15603;50.878;8.036;2022-11-06T07:43:04;7.18;;;2.25;;
28353;SDS011;15603;50.878;8.036;2022-11-06T07:45:33;14.30;;;2.80;;
28353;SDS011;15603;50.878;8.036;2022-11-06T07:48:00;7.75;;;1.83;;
28353;SDS011;15603;50.878;8.036;2022-11-06T07:50:27;12.32;;;2.35;;
28353;SDS011;15603;50.878;8.036;2022-11-06T07:52:55;7.80;;;2.08;;
28353;SDS011;15603;50.878;8.036;2022-11-06T07:55:23;15.10;;;4.38;;
28353;SDS011;15603;50.878;8.036;2022-11-06T07:57:50;10.73;;;2.08;;
28353;SDS011;15603;50.878;8.036;2022-11-06T08:00:17;12.63;;;2.00;;
28353;SDS011;15603;50.878;8.036;2022-11-06T08:02:44;4.65;;;1.83;;
28353;SDS011;15603;50.878;8.036;2022-11-06T08:05:11;8.23;;;2.10;;
28353;SDS011;15603;50.878;8.036;2022-11-06T08:07:38;14.50;;;2.25;;
28353;SDS011;15603;50.878;8.036;2022-11-06T08:10:06;9.40;;;2.42;;
28353;SDS011;15603;50.878;8.036;2022-11-06T08:12:33;6.97;;;1.90;;
28353;SDS011;15603;50.878;8.036;2022-11-06T08:15:00;10.40;;;3.67;;
28353;SDS011;15603;50.878;8.036;2022-11-06T08:17:27;6.60;;;2.10;;
28353;SDS011;15603;50.878;8.036;2022-11-06T08:19:55;7.60;;;2.00;;
28353;SDS011;15603;50.878;8.036;2022-11-06T08:22:22;8.18;;;2.22;;
28353;SDS011;15603;50.878;8.036;2022-11-06T08:24:49;9.15;;;2.92;;
28353;SDS011;15603;50.878;8.036;2022-11-06T08:27:16;9.75;;;3.22;;
28353;SDS011;15603;50.878;8.036;2022-11-06T08:29:43;10.23;;;2.15;;
28353;SDS011;15603;50.878;8.036;2022-11-06T08:32:10;5.93;;;2.03;;
28353;SDS011;15603;50.878;8.036;2022-11-06T08:34:37;12.23;;;2.80;;
28353;SDS011;15603;50.878;8.036;2022-11-06T08:37:04;14.23;;;2.70;;
28353;SDS011;15603;50.878;8.036;2022-11-06T08:39:31;10.73;;;2.38;;
28353;SDS011;15603;50.878;8.036;2022-11-06T08:41:58;7.85;;;2.92;;
28353;SDS011;15603;50.878;8.036;2022-11-06T08:44:25;7.38;;;1.98;;
28353;SDS011;15603;50.878;8.036;2022-11-06T08:46:53;15.05;;;2.65;;
28353;SDS011;15603;50.878;8.036;2022-11-06T08:49:20;9.40;;;2.47;;
28353;SDS011;15603;50.878;8.036;2022-11-06T08:51:47;17.00;;;2.72;;
28353;SDS011;15603;50.878;8.036;2022-11-06T08:54:14;4.88;;;2.15;;
28353;SDS011;15603;50.878;8.036;2022-11-06T08:56:41;11.07;;;2.53;;
28353;SDS011;15603;50.878;8.036;2022-11-06T08:59:08;9.43;;;2.35;;
28353;SDS011;15603;50.878;8.036;2022-11-06T09:01:35;7.43;;;2.00;;
28353;SDS011;15603;50.878;8.036;2022-11-06T09:04:03;12.75;;;2.78;;
28353;SDS011;15603;50.878;8.036;2022-11-06T09:06:31;10.88;;;2.28;;
28353;SDS011;15603;50.878;8.036;2022-11-06T09:08:58;6.78;;;2.20;;
28353;SDS011;15603;50.878;8.036;2022-11-06T09:11:25;5.13;;;2.10;;
28353;SDS011;15603;50.878;8.036;2022-11-06T09:13:52;7.15;;;2.80;;
28353;SDS011;15603;50.878;8.036;2022-11-06T09:16:19;10.13;;;2.47;;
28353;SDS011;15603;50.878;8.036;2022-11-06T09:18:46;11.45;;;2.63;;
28353;SDS011;15603;50.878;8.036;2022-11-06T09:21:13;9.70;;;2.70;;
28353;SDS011;15603;50.878;8.036;2022-11-06T09:23:42;10.65;;;2.10;;
28353;SDS011;15603;50.878;8.036;2022-11-06T09:26:10;13.63;;;2.45;;
28353;SDS011;15603;50.878;8.036;2022-11-06T09:28:37;8.32;;;2.38;;
28353;SDS011;15603;50.878;8.036;2022-11-06T09:31:06;9.55;;;1.85;;
28353;SDS011;15603;50.878;8.036;2022-11-06T09:33:36;7.40;;;2.30;;
28353;SDS011;15603;50.878;8.036;2022-11-06T09:36:04;16.98;;;2.25;;
28353;SDS011;15603;50.878;8.036;2022-11-06T09:38:32;8.27;;;1.65;;
28353;SDS011;15603;50.878;8.036;2022-11-06T09:41:02;7.18;;;1.92;;
28353;SDS011;15603;50.878;8.036;2022-11-06T09:46:23;12.73;;;2.20;;
28353;SDS011;15603;50.878;8.036;2022-11-06T09:49:00;7.07;;;1.73;;
28353;SDS011;15603;50.878;8.036;2022-11-06T09:51:37;9.32;;;1.60;;
28353;SDS011;15603;50.878;8.036;2022-11-06T09:54:14;7.97;;;2.25;;
28353;SDS011;15603;50.878;8.036;2022-11-06T09:56:46;11.20;;;3.30;;
28353;SDS011;15603;50.878;8.036;2022-11-06T09:59:16;8.68;;;2.13;;
28353;SDS011;15603;50.878;8.036;2022-11-06T10:01:47;16.02;;;2.10;;
28353;SDS011;15603;50.878;8.036;2022-11-06T10:04:36;5.90;;;1.90;;
28353;SDS011;15603;50.878;8.036;2022-11-06T10:07:16;6.50;;;2.10;;
28353;SDS011;15603;50.878;8.036;2022-11-06T10:09:52;10.13;;;2.47;;
28353;SDS011;15603;50.878;8.036;2022-11-06T10:12:30;7.10;;;1.55;;
28353;SDS011;15603;50.878;8.036;2022-11-06T10:17:56;4.38;;;1.35;;
28353;SDS011;15603;50.878;8.036;2022-11-06T10:20:53;12.13;;;1.42;;
28353;SDS011;15603;50.878;8.036;2022-11-06T10:31:36;8.32;;;1.45;;
28353;SDS011;15603;50.878;8.036;2022-11-06T10:36:55;10.43;;;1.63;;
28353;SDS011;15603;50.878;8.036;2022-11-06T10:41:57;5.53;;;1.38;;
28353;SDS011;15603;50.878;8.036;2022-11-06T10:44:41;11.05;;;1.92;;
28353;SDS011;15603;50.878;8.036;2022-11-06T10:47:17;15.35;;;1.95;;
28353;SDS011;15603;50.878;8.036;2022-11-06T10:57:38;5.50;;;1.10;;
28353;SDS011;15603;50.878;8.036;2022-11-06T11:00:12;4.40;;;1.00;;
28353;SDS011;15603;50.878;8.036;2022-11-06T11:02:45;7.50;;;1.15;;
28353;SDS011;15603;50.878;8.036;2022-11-06T11:05:18;7.90;;;1.25;;
28353;SDS011;15603;50.878;8.036;2022-11-06T11:07:48;5.13;;;1.05;;
28353;SDS011;15603;50.878;8.036;2022-11-06T11:12:55;12.60;;;2.53;;
28353;SDS011;15603;50.878;8.036;2022-11-06T11:15:37;11.38;;;3.25;;
28353;SDS011;15603;50.878;8.036;2022-11-06T11:20:38;5.53;;;1.80;;
28353;SDS011;15603;50.878;8.036;2022-11-06T11:23:18;6.38;;;0.90;;
28353;SDS011;15603;50.878;8.036;2022-11-06T11:25:46;2.75;;;0.73;;
28353;SDS011;15603;50.878;8.036;2022-11-06T11:28:28;3.38;;;0.63;;
28353;SDS011;15603;50.878;8.036;2022-11-06T11:31:09;5.00;;;0.88;;
28353;SDS011;15603;50.878;8.036;2022-11-06T11:33:39;2.17;;;0.88;;
28353;SDS011;15603;50.878;8.036;2022-11-06T11:36:13;3.55;;;1.05;;
28353;SDS011;15603;50.878;8.036;2022-11-06T11:38:40;4.00;;;0.98;;
28353;SDS011;15603;50.878;8.036;2022-11-06T11:41:13;9.57;;;1.42;;
28353;SDS011;15603;50.878;8.036;2022-11-06T11:44:08;2.38;;;0.75;;
28353;SDS011;15603;50.878;8.036;2022-11-06T11:46:45;16.55;;;2.03;;
28353;SDS011;15603;50.878;8.036;2022-11-06T11:49:46;5.50;;;0.50;;
28353;SDS011;15603;50.878;8.036;2022-11-06T11:52:10;11.23;;;0.85;;
28353;SDS011;15603;50.878;8.036;2022-11-06T11:54:39;5.28;;;0.60;;
28353;SDS011;15603;50.878;8.036;2022-11-06T11:57:07;4.97;;;0.80;;
28353;SDS011;15603;50.878;8.036;2022-11-06T11:59:47;5.03;;;0.60;;
28353;SDS011;15603;50.878;8.036;2022-11-06T12:03:04;9.13;;;0.75;;
28353;SDS011;15603;50.878;8.036;2022-11-06T12:07:43;4.90;;;1.10;;
28353;SDS011;15603;50.878;8.036;2022-11-06T12:12:47;3.42;;;0.93;;
28353;SDS011;15603;50.878;8.036;2022-11-06T12:15:20;13.82;;;1.00;;
28353;SDS011;15603;50.878;8.036;2022-11-06T12:17:51;5.45;;;0.80;;
28353;SDS011;15603;50.878;8.036;2022-11-06T12:20:25;6.65;;;1.63;;
28353;SDS011;15603;50.878;8.036;2022-11-06T12:22:56;1.70;;;0.52;;
28353;SDS011;15603;50.878;8.036;2022-11-06T12:25:27;4.43;;;0.70;;
28353;SDS011;15603;50.878;8.036;2022-11-06T12:28:01;3.53;;;0.57;;
28353;SDS011;15603;50.878;8.036;2022-11-06T12:30:36;2.15;;;0.50;;
28353;SDS011;15603;50.878;8.036;2022-11-06T12:33:20;5.00;;;0.60;;
28353;SDS011;15603;50.878;8.036;2022-11-06T12:36:10;4.13;;;0.80;;
28353;SDS011;15603;50.878;8.036;2022-11-06T12:38:45;4.53;;;0.90;;
28353;SDS011;15603;50.878;8.036;2022-11-06T12:44:02;5.35;;;0.65;;
28353;SDS011;15603;50.878;8.036;2022-11-06T12:52:54;4.13;;;0.90;;
28353;SDS011;15603;50.878;8.036;2022-11-06T12:55:32;2.83;;;0.70;;
28353;SDS011;15603;50.878;8.036;2022-11-06T12:58:08;3.60;;;1.20;;
28353;SDS011;15603;50.878;8.036;2022-11-06T13:01:02;4.18;;;1.33;;
28353;SDS011;15603;50.878;8.036;2022-11-06T13:17:00;1.83;;;1.05;;
28353;SDS011;15603;50.878;8.036;2022-11-06T13:19:49;3.50;;;1.10;;
28353;SDS011;15603;50.878;8.036;2022-11-06T13:22:41;2.72;;;0.90;;
28353;SDS011;15603;50.878;8.036;2022-11-06T13:25:21;6.05;;;1.27;;
28353;SDS011;15603;50.878;8.036;2022-11-06T13:30:41;2.72;;;1.08;;
28353;SDS011;15603;50.878;8.036;2022-11-06T13:33:14;3.35;;;1.17;;
28353;SDS011;15603;50.878;8.036;2022-11-06T13:35:46;2.47;;;1.40;;
28353;SDS011;15603;50.878;8.036;2022-11-06T13:38:15;1.90;;;1.15;;
28353;SDS011;15603;50.878;8.036;2022-11-06T13:40:49;5.70;;;1.55;;
28353;SDS011;15603;50.878;8.036;2022-11-06T13:43:25;2.67;;;0.90;;
28353;SDS011;15603;50.878;8.036;2022-11-06T13:49:02;3.15;;;1.15;;
28353;SDS011;15603;50.878;8.036;2022-11-06T13:51:52;2.08;;;0.95;;
28353;SDS011;15603;50.878;8.036;2022-11-06T13:54:28;6.93;;;1.23;;
28353;SDS011;15603;50.878;8.036;2022-11-06T13:59:46;3.50;;;1.35;;
28353;SDS011;15603;50.878;8.036;2022-11-06T14:08:31;3.20;;;1.38;;
28353;SDS011;15603;50.878;8.036;2022-11-06T14:11:10;2.53;;;1.10;;
28353;SDS011;15603;50.878;8.036;2022-11-06T14:13:39;3.63;;;1.00;;
28353;SDS011;15603;50.878;8.036;2022-11-06T14:18:52;10.45;;;1.13;;
28353;SDS011;15603;50.878;8.036;2022-11-06T14:26:44;2.88;;;1.27;;
28353;SDS011;15603;50.878;8.036;2022-11-06T14:34:32;5.20;;;0.88;;
28353;SDS011;15603;50.878;8.036;2022-11-06T14:42:31;5.05;;;1.85;;
28353;SDS011;15603;50.878;8.036;2022-11-06T14:45:07;3.70;;;1.42;;
28353;SDS011;15603;50.878;8.036;2022-11-06T14:47:41;5.72;;;1.20;;
28353;SDS011;15603;50.878;8.036;2022-11-06T14:52:46;6.47;;;1.55;;
28353;SDS011;15603;50.878;8.036;2022-11-06T14:55:29;4.18;;;1.13;;
28353;SDS011;15603;50.878;8.036;2022-11-06T14:58:12;2.03;;;0.90;;
28353;SDS011;15603;50.878;8.036;2022-11-06T15:01:02;1.10;;;0.68;;
28353;SDS011;15603;50.878;8.036;2022-11-06T15:03:56;1.60;;;0.93;;
28353;SDS011;15603;50.878;8.036;2022-11-06T15:08:55;2.40;;;0.95;;
28353;SDS011;15603;50.878;8.036;2022-11-06T15:16:39;2.47;;;1.00;;
28353;SDS011;15603;50.878;8.036;2022-11-06T15:19:16;1.80;;;0.90;;
28353;SDS011;15603;50.878;8.036;2022-11-06T15:21:48;4.13;;;0.98;;
28353;SDS011;15603;50.878;8.036;2022-11-06T15:24:25;2.40;;;1.05;;
28353;SDS011;15603;50.878;8.036;2022-11-06T15:26:56;3.35;;;1.10;;
28353;SDS011;15603;50.878;8.036;2022-11-06T15:29:27;7.43;;;1.60;;
28353;SDS011;15603;50.878;8.036;2022-11-06T15:31:58;3.90;;;1.15;;
28353;SDS011;15603;50.878;8.036;2022-11-06T15:34:33;5.47;;;1.13;;
28353;SDS011;15603;50.878;8.036;2022-11-06T15:37:09;2.13;;;1.08;;
28353;SDS011;15603;50.878;8.036;2022-11-06T15:42:07;5.50;;;1.33;;
28353;SDS011;15603;50.878;8.036;2022-11-06T15:44:39;3.70;;;1.17;;
28353;SDS011;15603;50.878;8.036;2022-11-06T15:47:26;1.38;;;0.90;;
28353;SDS011;15603;50.878;8.036;2022-11-06T15:52:45;1.85;;;0.80;;
28353;SDS011;15603;50.878;8.036;2022-11-06T15:55:13;4.13;;;1.33;;
28353;SDS011;15603;50.878;8.036;2022-11-06T15:57:49;5.93;;;1.27;;
28353;SDS011;15603;50.878;8.036;2022-11-06T16:00:23;3.13;;;1.50;;
28353;SDS011;15603;50.878;8.036;2022-11-06T16:05:29;1.45;;;1.00;;
28353;SDS011;15603;50.878;8.036;2022-11-06T16:07:59;3.55;;;1.50;;
28353;SDS011;15603;50.878;8.036;2022-11-06T16:10:27;2.95;;;1.50;;
28353;SDS011;15603;50.878;8.036;2022-11-06T16:12:54;5.13;;;2.30;;
28353;SDS011;15603;50.878;8.036;2022-11-06T16:18:27;10.82;;;1.92;;
28353;SDS011;15603;50.878;8.036;2022-11-06T16:21:07;4.80;;;1.42;;
28353;SDS011;15603;50.878;8.036;2022-11-06T16:24:03;2.05;;;1.35;;
28353;SDS011;15603;50.878;8.036;2022-11-06T16:26:43;2.15;;;1.33;;
28353;SDS011;15603;50.878;8.036;2022-11-06T16:29:16;6.40;;;2.22;;
28353;SDS011;15603;50.878;8.036;2022-11-06T16:34:34;1.73;;;1.30;;
28353;SDS011;15603;50.878;8.036;2022-11-06T16:37:05;3.72;;;2.05;;
28353;SDS011;15603;50.878;8.036;2022-11-06T16:39:57;4.10;;;1.77;;
28353;SDS011;15603;50.878;8.036;2022-11-06T16:44:59;6.30;;;2.47;;
28353;SDS011;15603;50.878;8.036;2022-11-06T16:47:27;8.57;;;3.17;;
28353;SDS011;15603;50.878;8.036;2022-11-06T16:49:55;6.88;;;2.08;;
28353;SDS011;15603;50.878;8.036;2022-11-06T16:55:02;4.72;;;2.10;;
28353;SDS011;15603;50.878;8.036;2022-11-06T16:57:58;5.80;;;2.10;;
28353;SDS011;15603;50.878;8.036;2022-11-06T17:00:28;5.10;;;2.30;;
28353;SDS011;15603;50.878;8.036;2022-11-06T17:02:57;6.97;;;2.20;;
28353;SDS011;15603;50.878;8.036;2022-11-06T17:05:36;5.75;;;1.92;;
28353;SDS011;15603;50.878;8.036;2022-11-06T17:10:43;4.60;;;2.08;;
28353;SDS011;15603;50.878;8.036;2022-11-06T17:13:16;8.25;;;2.28;;
28353;SDS011;15603;50.878;8.036;2022-11-06T17:15:53;6.20;;;2.40;;
28353;SDS011;15603;50.878;8.036;2022-11-06T17:18:25;4.85;;;2.05;;
28353;SDS011;15603;50.878;8.036;2022-11-06T17:21:04;3.53;;;2.20;;
28353;SDS011;15603;50.878;8.036;2022-11-06T17:23:33;10.48;;;2.55;;
28353;SDS011;15603;50.878;8.036;2022-11-06T17:26:01;8.20;;;1.98;;
28353;SDS011;15603;50.878;8.036;2022-11-06T17:28:31;6.32;;;3.30;;
28353;SDS011;15603;50.878;8.036;2022-11-06T17:30:58;3.97;;;2.70;;
28353;SDS011;15603;50.878;8.036;2022-11-06T17:33:25;5.57;;;2.50;;
28353;SDS011;15603;50.878;8.036;2022-11-06T17:35:52;4.90;;;2.63;;
28353;SDS011;15603;50.878;8.036;2022-11-06T17:38:19;5.35;;;2.88;;
28353;SDS011;15603;50.878;8.036;2022-11-06T17:40:47;4.53;;;2.20;;
28353;SDS011;15603;50.878;8.036;2022-11-06T17:43:15;9.70;;;2.35;;
28353;SDS011;15603;50.878;8.036;2022-11-06T17:45:43;8.43;;;2.25;;
28353;SDS011;15603;50.878;8.036;2022-11-06T17:48:11;7.03;;;2.30;;
28353;SDS011;15603;50.878;8.036;2022-11-06T17:50:38;7.43;;;2.13;;
28353;SDS011;15603;50.878;8.036;2022-11-06T17:53:24;4.68;;;2.63;;
28353;SDS011;15603;50.878;8.036;2022-11-06T17:55:51;3.72;;;2.42;;